createdAt,value
2022-10-24T00:01:41.744Z,26.80
2022-10-24T00:04:10.692Z,26.80
2022-10-24T00:06:40.490Z,26.80
2022-10-24T00:09:09.314Z,26.90
2022-10-24T00:11:37.567Z,26.90
2022-10-24T00:14:05.779Z,26.80
2022-10-24T00:16:34.074Z,26.90
2022-10-24T00:19:02.245Z,26.90
2022-10-24T00:21:30.562Z,26.90
2022-10-24T00:23:58.767Z,26.90
2022-10-24T00:26:26.962Z,26.80
2022-10-24T00:28:55.288Z,26.80
2022-10-24T00:31:23.541Z,26.80
2022-10-24T00:33:51.755Z,26.90
2022-10-24T00:36:24.134Z,26.90
2022-10-24T00:38:53.502Z,26.80
2022-10-24T00:41:28.945Z,26.90
2022-10-24T00:44:15.755Z,26.90
2022-10-24T00:46:57.528Z,26.90
2022-10-24T00:49:49.033Z,26.90
2022-10-24T00:52:22.660Z,26.90
2022-10-24T00:54:53.911Z,26.80
2022-10-24T00:57:25.400Z,26.80
2022-10-24T00:59:58.683Z,26.80
2022-10-24T01:02:27.373Z,26.80
2022-10-24T01:04:55.553Z,26.80
2022-10-24T01:08:05.177Z,26.70
2022-10-24T01:10:42.137Z,26.80
2022-10-24T01:13:17.541Z,26.80
2022-10-24T01:15:51.882Z,26.80
2022-10-24T01:18:20.081Z,26.80
2022-10-24T01:21:19.710Z,26.80
2022-10-24T01:24:09.381Z,26.70
2022-10-24T01:27:02.221Z,26.80
2022-10-24T01:29:56.702Z,26.70
2022-10-24T01:32:43.149Z,26.70
2022-10-24T01:35:32.268Z,26.70
2022-10-24T01:38:08.077Z,26.70
2022-10-24T01:40:45.524Z,26.70
2022-10-24T01:43:16.849Z,26.70
2022-10-24T01:45:50.241Z,26.70
2022-10-24T01:48:40.479Z,26.70
2022-10-24T01:51:10.044Z,26.70
2022-10-24T01:53:39.522Z,26.70
2022-10-24T01:56:07.886Z,26.70
2022-10-24T01:58:36.385Z,26.70
2022-10-24T02:01:10.927Z,26.70
2022-10-24T02:03:48.810Z,26.70
2022-10-24T02:06:23.550Z,26.70
2022-10-24T02:08:59.959Z,26.70
2022-10-24T02:11:28.391Z,26.70
2022-10-24T02:14:06.699Z,26.70
2022-10-24T02:16:36.151Z,26.60
2022-10-24T02:19:05.345Z,26.50
2022-10-24T02:21:44.267Z,26.40
2022-10-24T02:24:31.991Z,26.30
2022-10-24T02:27:08.766Z,26.10
2022-10-24T02:29:58.885Z,26.00
2022-10-24T02:32:34.236Z,25.90
2022-10-24T02:35:04.609Z,25.90
2022-10-24T02:37:34.988Z,25.70
2022-10-24T02:40:06.284Z,25.60
2022-10-24T02:42:36.078Z,25.50
2022-10-24T02:45:05.956Z,25.50
2022-10-24T02:47:34.499Z,25.40
2022-10-24T02:50:03.366Z,25.40
2022-10-24T02:52:31.549Z,25.30
2022-10-24T02:54:59.981Z,25.30
2022-10-24T02:57:28.245Z,25.20
2022-10-24T02:59:56.405Z,25.00
2022-10-24T03:02:24.911Z,25.00
2022-10-24T03:04:53.061Z,25.10
2022-10-24T03:07:21.356Z,25.00
2022-10-24T03:09:49.530Z,24.90
2022-10-24T03:12:18.101Z,24.80
2022-10-24T03:14:46.240Z,24.80
2022-10-24T03:17:14.497Z,24.60
2022-10-24T03:19:42.606Z,24.60
2022-10-24T03:22:10.814Z,24.50
2022-10-24T03:24:44.530Z,24.50
2022-10-24T03:27:23.222Z,24.50
2022-10-24T03:29:51.457Z,24.40
2022-10-24T03:32:19.700Z,24.10
2022-10-24T03:34:47.962Z,24.10
2022-10-24T03:37:16.197Z,23.90
2022-10-24T03:39:44.453Z,23.80
2022-10-24T03:42:12.636Z,23.80
2022-10-24T03:44:40.926Z,23.90
2022-10-24T03:47:09.216Z,23.90
2022-10-24T03:49:37.373Z,24.10
2022-10-24T03:52:05.852Z,24.10
2022-10-24T03:54:34.098Z,24.00
2022-10-24T03:57:02.322Z,24.00
2022-10-24T03:59:30.464Z,24.10
2022-10-24T04:01:59.043Z,24.20
2022-10-24T04:04:27.233Z,24.30
2022-10-24T04:06:55.614Z,24.30
2022-10-24T04:09:23.859Z,24.30
2022-10-24T04:11:51.974Z,24.30
2022-10-24T04:14:21.253Z,24.30
2022-10-24T04:16:49.634Z,24.40
2022-10-24T04:19:17.680Z,24.40
2022-10-24T04:21:46.256Z,24.40
2022-10-24T04:24:15.013Z,24.40
2022-10-24T04:26:43.341Z,24.40
2022-10-24T04:29:11.710Z,24.40
2022-10-24T04:31:39.892Z,24.50
2022-10-24T04:34:07.991Z,24.50
2022-10-24T04:36:36.399Z,24.60
2022-10-24T04:39:05.001Z,24.50
2022-10-24T04:41:33.299Z,24.60
2022-10-24T04:44:01.353Z,24.60
2022-10-24T04:46:29.471Z,24.60
2022-10-24T04:48:57.714Z,24.60
2022-10-24T04:51:26.155Z,24.50
2022-10-24T04:53:54.572Z,24.50
2022-10-24T04:56:22.721Z,24.50
2022-10-24T04:58:50.834Z,24.50
2022-10-24T05:01:19.129Z,24.40
2022-10-24T05:03:47.326Z,24.30
2022-10-24T05:06:15.648Z,24.20
2022-10-24T05:08:43.734Z,24.20
2022-10-24T05:11:11.850Z,24.20
2022-10-24T05:13:40.357Z,24.30
2022-10-24T05:16:08.500Z,24.30
2022-10-24T05:18:36.855Z,24.30
2022-10-24T05:21:05.085Z,24.40
2022-10-24T05:23:33.222Z,24.40
2022-10-24T05:26:01.350Z,24.40
2022-10-24T05:28:29.770Z,24.50
2022-10-24T05:30:57.783Z,24.50
2022-10-24T05:33:26.052Z,24.50
2022-10-24T05:35:54.786Z,24.50
2022-10-24T05:38:23.067Z,24.50
2022-10-24T05:40:51.177Z,24.50
2022-10-24T05:43:19.786Z,24.40
2022-10-24T05:48:22.610Z,24.40
2022-10-24T05:50:50.682Z,24.40
2022-10-24T05:53:18.790Z,24.30
2022-10-24T05:55:46.891Z,24.30
2022-10-24T05:58:15.200Z,24.30
2022-10-24T06:00:43.262Z,24.20
2022-10-24T06:03:12.575Z,24.20
2022-10-24T06:05:40.857Z,24.20
2022-10-24T06:08:09.648Z,24.20
2022-10-24T06:10:37.985Z,24.20
2022-10-24T06:13:06.020Z,24.20
2022-10-24T06:15:34.225Z,24.30
2022-10-24T06:18:02.496Z,24.20
2022-10-24T06:20:30.569Z,24.10
2022-10-24T06:22:58.775Z,24.10
2022-10-24T06:25:27.058Z,24.10
2022-10-24T06:27:55.425Z,24.10
2022-10-24T06:30:23.646Z,24.10
2022-10-24T06:32:52.090Z,24.10
2022-10-24T06:35:20.783Z,24.10
2022-10-24T06:37:49.073Z,24.10
2022-10-24T06:40:18.517Z,24.10
2022-10-24T06:42:47.098Z,24.10
2022-10-24T06:45:15.226Z,24.00
2022-10-24T06:47:43.994Z,24.00
2022-10-24T06:50:12.418Z,24.00
2022-10-24T06:52:40.692Z,24.10
2022-10-24T06:55:09.753Z,24.10
2022-10-24T06:57:38.062Z,24.20
2022-10-24T07:00:07.556Z,24.20
2022-10-24T07:02:36.105Z,24.20
2022-10-24T07:05:04.697Z,24.20
2022-10-24T07:07:33.048Z,24.20
2022-10-24T07:10:01.316Z,24.10
2022-10-24T07:12:29.357Z,24.10
2022-10-24T07:14:57.625Z,24.10
2022-10-24T07:17:26.057Z,24.10
2022-10-24T07:19:55.105Z,24.10
2022-10-24T07:22:24.127Z,24.10
2022-10-24T07:24:55.818Z,24.20
2022-10-24T07:27:24.628Z,24.20
2022-10-24T07:29:52.794Z,24.20
2022-10-24T07:32:21.924Z,24.20
2022-10-24T07:34:50.503Z,24.30
2022-10-24T07:37:19.592Z,24.30
2022-10-24T07:39:47.801Z,24.30
2022-10-24T07:42:16.157Z,24.40
2022-10-24T07:44:44.472Z,24.40
2022-10-24T07:47:12.709Z,24.40
2022-10-24T07:49:40.902Z,24.40
2022-10-24T07:52:09.154Z,24.40
2022-10-24T07:54:37.746Z,24.40
2022-10-24T07:57:06.202Z,24.40
2022-10-24T07:59:42.213Z,24.50
2022-10-24T08:02:14.945Z,24.60
2022-10-24T08:04:43.499Z,24.60
2022-10-24T08:07:12.822Z,24.60
2022-10-24T08:09:43.953Z,24.70
2022-10-24T08:12:12.540Z,24.60
2022-10-24T08:14:42.165Z,24.60
2022-10-24T08:17:11.409Z,24.70
2022-10-24T08:19:42.412Z,24.60
2022-10-24T08:22:12.944Z,24.60
2022-10-24T08:24:43.393Z,24.60
2022-10-24T08:27:12.005Z,24.60
2022-10-24T08:29:40.704Z,24.60
2022-10-24T08:32:09.053Z,24.60
2022-10-24T08:34:39.300Z,24.60
2022-10-24T08:37:07.624Z,24.60
2022-10-24T08:39:35.865Z,24.60
2022-10-24T08:42:08.818Z,24.70
2022-10-24T08:44:42.169Z,24.70
2022-10-24T08:47:31.652Z,24.70
2022-10-24T08:50:12.617Z,24.80
2022-10-24T08:53:00.573Z,24.90
2022-10-24T08:55:49.748Z,25.00
2022-10-24T08:58:37.757Z,25.00
2022-10-24T09:01:15.310Z,25.10
2022-10-24T09:04:00.801Z,25.10
2022-10-24T09:06:34.931Z,25.10
2022-10-24T09:09:20.477Z,25.20
2022-10-24T09:11:54.574Z,25.20
2022-10-24T09:14:24.620Z,25.20
2022-10-24T09:17:02.014Z,25.20
2022-10-24T09:19:31.883Z,25.30
2022-10-24T09:22:01.763Z,25.40
2022-10-24T09:24:42.494Z,25.40
2022-10-24T09:27:24.574Z,25.50
2022-10-24T09:29:53.770Z,25.60
2022-10-24T09:32:25.651Z,25.60
2022-10-24T09:34:54.907Z,25.60
2022-10-24T09:37:40.396Z,25.60
2022-10-24T09:40:28.980Z,25.60
2022-10-24T09:43:07.258Z,25.70
2022-10-24T09:45:44.021Z,25.70
2022-10-24T09:48:47.421Z,25.80
2022-10-24T09:51:22.377Z,25.90
2022-10-24T09:54:21.187Z,25.90
2022-10-24T09:57:00.336Z,25.90
2022-10-24T09:59:47.085Z,26.10
2022-10-24T10:02:20.327Z,26.10
2022-10-24T10:04:54.035Z,26.10
2022-10-24T10:07:28.450Z,26.20
2022-10-24T10:10:08.673Z,26.10
2022-10-24T10:12:42.816Z,26.20
2022-10-24T10:15:38.627Z,26.20
2022-10-24T10:18:25.484Z,26.20
2022-10-24T10:21:05.610Z,26.10
2022-10-24T10:23:40.386Z,26.10
2022-10-24T10:26:29.421Z,26.20
2022-10-24T10:29:07.205Z,26.30
2022-10-24T10:31:38.387Z,26.40
2022-10-24T10:34:20.422Z,26.40
2022-10-24T10:37:13.207Z,26.40
2022-10-24T10:39:53.668Z,26.50
2022-10-24T10:42:45.000Z,26.60
2022-10-24T10:45:13.502Z,26.60
2022-10-24T10:47:50.778Z,26.70
2022-10-24T10:50:32.596Z,26.70
2022-10-24T10:53:43.927Z,26.70
2022-10-24T10:56:37.039Z,26.90
2022-10-24T10:59:48.004Z,26.90
2022-10-24T11:02:35.150Z,26.90
2022-10-24T11:05:27.997Z,27.00
2022-10-24T11:08:05.326Z,27.00
2022-10-24T11:10:49.049Z,27.10
2022-10-24T11:13:39.085Z,27.30
2022-10-24T11:16:15.065Z,27.40
2022-10-24T11:18:48.103Z,27.30
2022-10-24T11:21:19.347Z,27.40
2022-10-24T11:24:00.246Z,27.50
2022-10-24T11:26:37.856Z,27.60
2022-10-24T11:29:40.649Z,27.70
2022-10-24T11:32:12.516Z,27.60
2022-10-24T11:34:52.015Z,27.70
2022-10-24T11:37:30.442Z,27.80
2022-10-24T11:40:00.895Z,27.80
2022-10-24T11:42:41.340Z,27.80
2022-10-24T11:45:17.186Z,27.80
2022-10-24T11:47:57.555Z,27.70
2022-10-24T11:50:38.598Z,27.80
2022-10-24T11:53:24.176Z,27.80
2022-10-24T11:56:03.542Z,27.70
2022-10-24T11:58:34.165Z,27.80
2022-10-24T12:01:20.842Z,27.90
2022-10-24T12:04:26.093Z,27.80
2022-10-24T12:07:29.597Z,27.90
2022-10-24T12:10:14.548Z,27.90
2022-10-24T12:13:01.367Z,28.00
2022-10-24T12:15:30.746Z,28.00
2022-10-24T12:18:28.314Z,27.90
2022-10-24T12:21:01.958Z,28.00
2022-10-24T12:23:36.895Z,28.20
2022-10-24T12:26:22.083Z,28.20
2022-10-24T12:29:07.134Z,28.20
2022-10-24T12:31:38.828Z,28.20
2022-10-24T12:34:16.667Z,28.30
2022-10-24T12:37:10.202Z,28.20
2022-10-24T12:39:50.966Z,28.20
2022-10-24T12:42:26.284Z,28.30
2022-10-24T12:45:06.728Z,28.40
2022-10-24T12:47:38.330Z,28.50
2022-10-24T12:50:21.988Z,28.60
2022-10-24T12:52:50.419Z,28.50
2022-10-24T12:55:51.746Z,28.60
2022-10-24T12:58:31.102Z,28.50
2022-10-24T13:01:11.897Z,28.40
2022-10-24T13:03:52.222Z,28.50
2022-10-24T13:06:40.195Z,28.60
2022-10-24T13:09:18.901Z,28.70
2022-10-24T13:11:59.919Z,28.80
2022-10-24T13:15:01.816Z,29.00
2022-10-24T13:17:38.435Z,29.00
2022-10-24T13:20:17.662Z,29.10
2022-10-24T13:22:47.470Z,29.10
2022-10-24T13:25:28.551Z,29.00
2022-10-24T13:28:21.625Z,29.10
2022-10-24T13:30:53.475Z,29.10
2022-10-24T13:33:33.919Z,28.80
2022-10-24T13:36:07.990Z,28.80
2022-10-24T13:38:41.345Z,28.70
2022-10-24T13:41:18.020Z,28.60
2022-10-24T13:43:50.445Z,28.70
2022-10-24T13:46:46.052Z,28.60
2022-10-24T13:49:46.833Z,28.60
2022-10-24T13:52:48.335Z,28.60
2022-10-24T13:55:20.646Z,28.70
2022-10-24T13:58:06.169Z,28.50
2022-10-24T14:00:38.262Z,28.40
2022-10-24T14:03:17.328Z,28.20
2022-10-24T14:05:58.557Z,28.30
2022-10-24T14:08:37.406Z,28.20
2022-10-24T14:11:14.372Z,28.20
2022-10-24T14:13:57.339Z,28.20
2022-10-24T14:16:31.480Z,28.10
2022-10-24T14:19:16.680Z,28.20
2022-10-24T14:21:47.297Z,28.30
2022-10-24T14:24:21.139Z,28.10
2022-10-24T14:26:51.215Z,28.10
2022-10-24T14:29:29.461Z,28.20
2022-10-24T14:32:01.377Z,28.20
2022-10-24T14:34:33.905Z,28.40
2022-10-24T14:37:15.047Z,28.50
2022-10-24T14:39:44.902Z,28.70
2022-10-24T14:42:19.896Z,29.00
2022-10-24T14:44:48.861Z,29.00
2022-10-24T14:47:46.658Z,29.20
2022-10-24T14:50:39.053Z,29.40
2022-10-24T14:53:20.806Z,29.50
2022-10-24T14:55:58.384Z,29.70
2022-10-24T14:58:30.663Z,29.60
2022-10-24T15:01:00.445Z,29.80
2022-10-24T15:03:33.497Z,29.90
2022-10-24T15:06:17.889Z,30.00
2022-10-24T15:08:46.511Z,30.30
2022-10-24T15:11:19.540Z,30.70
2022-10-24T15:14:06.306Z,30.60
2022-10-24T15:16:39.246Z,30.80
2022-10-24T15:19:16.745Z,30.90
2022-10-24T15:21:46.703Z,30.80
2022-10-24T15:24:34.842Z,30.70
2022-10-24T15:27:25.153Z,30.50
2022-10-24T15:29:56.804Z,30.60
2022-10-24T15:32:28.319Z,31.10
2022-10-24T15:34:59.134Z,31.30
2022-10-24T15:37:27.784Z,31.40
2022-10-24T15:39:56.386Z,31.70
2022-10-24T15:42:24.734Z,31.60
2022-10-24T15:44:52.788Z,31.70
2022-10-24T15:47:21.078Z,31.90
2022-10-24T15:49:49.605Z,32.40
2022-10-24T15:52:18.451Z,32.90
2022-10-24T15:54:47.003Z,33.00
2022-10-24T15:57:16.228Z,33.20
2022-10-24T15:59:46.858Z,32.80
2022-10-24T16:02:22.361Z,33.20
2022-10-24T16:04:51.215Z,33.40
2022-10-24T16:07:19.762Z,33.20
2022-10-24T16:09:48.196Z,33.40
2022-10-24T16:12:16.402Z,33.60
2022-10-24T16:14:44.687Z,33.70
2022-10-24T16:17:12.840Z,33.80
2022-10-24T16:19:40.989Z,33.60
2022-10-24T16:22:10.946Z,34.00
2022-10-24T16:24:39.145Z,34.40
2022-10-24T16:27:07.524Z,34.40
2022-10-24T16:29:35.647Z,34.20
2022-10-24T16:32:04.009Z,33.40
2022-10-24T16:34:32.146Z,33.80
2022-10-24T16:37:00.368Z,33.70
2022-10-24T16:39:28.553Z,33.60
2022-10-24T16:41:56.841Z,33.60
2022-10-24T16:44:25.081Z,33.90
2022-10-24T16:46:54.450Z,33.70
2022-10-24T16:49:22.838Z,33.60
2022-10-24T16:51:51.149Z,33.70
2022-10-24T16:54:19.476Z,33.20
2022-10-24T16:56:51.063Z,33.80
2022-10-24T16:59:21.907Z,33.40
2022-10-24T17:01:50.982Z,32.80
2022-10-24T17:04:19.307Z,32.20
2022-10-24T17:06:47.468Z,31.80
2022-10-24T17:09:16.109Z,31.70
2022-10-24T17:11:45.713Z,31.30
2022-10-24T17:14:14.615Z,31.20
2022-10-24T17:16:44.575Z,30.80
2022-10-24T17:19:16.275Z,30.60
2022-10-24T17:21:51.449Z,30.50
2022-10-24T17:24:22.596Z,30.50
2022-10-24T17:26:51.718Z,30.40
2022-10-24T17:29:32.187Z,30.20
2022-10-24T17:32:01.031Z,29.90
2022-10-24T17:34:29.540Z,29.90
2022-10-24T17:37:17.403Z,29.90
2022-10-24T17:39:54.425Z,29.90
2022-10-24T17:42:23.167Z,30.00
2022-10-24T17:44:51.519Z,30.10
2022-10-24T17:47:19.700Z,30.30
2022-10-24T17:49:48.082Z,30.40
2022-10-24T17:52:23.591Z,30.60
2022-10-24T17:54:52.306Z,30.30
2022-10-24T17:57:20.549Z,30.00
2022-10-24T17:59:50.865Z,29.90
2022-10-24T18:02:19.398Z,29.50
2022-10-24T18:04:47.637Z,29.30
2022-10-24T18:07:15.928Z,28.90
2022-10-24T18:09:44.250Z,28.70
2022-10-24T18:12:12.345Z,28.60
2022-10-24T18:14:40.522Z,28.50
2022-10-24T18:17:08.891Z,28.20
2022-10-24T18:19:37.117Z,28.00
2022-10-24T18:22:05.347Z,28.00
2022-10-24T18:24:33.576Z,28.00
2022-10-24T18:27:01.742Z,27.90
2022-10-24T18:29:29.947Z,27.90
2022-10-24T18:31:58.098Z,27.80
2022-10-24T18:34:26.468Z,27.70
2022-10-24T18:36:54.605Z,27.70
2022-10-24T18:39:26.269Z,27.60
2022-10-24T18:42:19.801Z,27.60
2022-10-24T18:44:51.114Z,27.50
2022-10-24T18:47:23.274Z,27.50
2022-10-24T18:49:54.089Z,27.50
2022-10-24T18:52:43.636Z,27.50
2022-10-24T18:55:15.238Z,27.40
2022-10-24T18:57:43.939Z,27.50
2022-10-24T19:00:17.970Z,27.40
2022-10-24T19:02:54.265Z,27.30
2022-10-24T19:05:25.658Z,27.30
2022-10-24T19:07:54.067Z,27.40
2022-10-24T19:10:25.416Z,27.30
2022-10-24T19:12:54.312Z,27.30
2022-10-24T19:15:22.838Z,27.30
2022-10-24T19:17:52.142Z,27.30
2022-10-24T19:20:24.375Z,27.20
2022-10-24T19:22:52.813Z,27.20
2022-10-24T19:25:21.218Z,27.20
2022-10-24T19:27:49.416Z,27.20
2022-10-24T19:30:18.007Z,27.10
2022-10-24T19:32:46.336Z,27.10
2022-10-24T19:35:14.942Z,27.10
2022-10-24T19:37:43.127Z,27.10
2022-10-24T19:40:11.950Z,27.10
2022-10-24T19:42:40.215Z,27.10
2022-10-24T19:45:08.797Z,27.10
2022-10-24T19:47:36.838Z,27.10
2022-10-24T19:50:05.380Z,27.00
2022-10-24T19:52:33.393Z,27.00
2022-10-24T19:55:02.005Z,27.10
2022-10-24T19:57:30.600Z,27.00
2022-10-24T19:59:58.905Z,27.10
2022-10-24T20:02:27.273Z,27.00
2022-10-24T20:04:55.380Z,27.00
2022-10-24T20:07:23.540Z,27.00
2022-10-24T20:09:51.885Z,27.00
2022-10-24T20:12:20.139Z,27.00
2022-10-24T20:14:48.329Z,26.90
2022-10-24T20:17:16.763Z,27.00
2022-10-24T20:19:45.028Z,26.90
2022-10-24T20:22:13.350Z,26.90
2022-10-24T20:24:41.508Z,26.90
2022-10-24T20:27:09.788Z,26.90
2022-10-24T20:29:38.202Z,26.90
2022-10-24T20:32:06.585Z,26.90
2022-10-24T20:34:34.982Z,26.90
2022-10-24T20:37:03.179Z,26.90
2022-10-24T20:39:31.388Z,26.90
2022-10-24T20:41:59.500Z,26.90
2022-10-24T20:44:27.906Z,26.90
2022-10-24T20:46:56.015Z,26.90
2022-10-24T20:49:24.298Z,26.90
2022-10-24T20:51:52.982Z,26.90
2022-10-24T20:54:21.262Z,26.90
2022-10-24T20:56:49.674Z,26.90
2022-10-24T20:59:18.217Z,26.90
2022-10-24T21:01:46.627Z,26.90
2022-10-24T21:04:17.037Z,26.90
2022-10-24T21:06:48.540Z,26.90
2022-10-24T21:09:17.003Z,26.90
2022-10-24T21:11:45.367Z,26.90
2022-10-24T21:14:14.496Z,26.90
2022-10-24T21:16:42.560Z,26.90
2022-10-24T21:19:10.749Z,26.90
2022-10-24T21:21:39.690Z,26.90
2022-10-24T21:24:08.534Z,26.90
2022-10-24T21:26:37.555Z,26.90
2022-10-24T21:29:27.977Z,26.90
2022-10-24T21:31:54.835Z,26.90
2022-10-24T21:34:23.175Z,26.80
2022-10-24T21:36:51.275Z,26.90
2022-10-24T21:39:19.601Z,26.90
2022-10-24T21:41:47.902Z,26.80
2022-10-24T21:44:16.103Z,26.80
2022-10-24T21:46:44.636Z,26.80
2022-10-24T21:49:13.016Z,26.80
2022-10-24T21:51:41.405Z,26.80
2022-10-24T21:54:18.401Z,26.80
2022-10-24T21:56:47.066Z,26.80
2022-10-24T21:59:20.887Z,26.80
2022-10-24T22:01:50.781Z,26.80
2022-10-24T22:04:19.809Z,26.80
2022-10-24T22:06:48.057Z,26.90
2022-10-24T22:09:19.203Z,26.90
2022-10-24T22:11:47.546Z,27.00
2022-10-24T22:14:17.064Z,26.90
2022-10-24T22:16:45.487Z,26.90
2022-10-24T22:19:14.468Z,26.90
2022-10-24T22:21:45.801Z,26.90
2022-10-24T22:24:21.038Z,26.90
2022-10-24T22:26:50.426Z,26.90
2022-10-24T22:29:21.845Z,26.90
2022-10-24T22:31:51.724Z,26.80
2022-10-24T22:34:23.615Z,26.80
2022-10-24T22:37:04.841Z,26.70
2022-10-24T22:39:33.451Z,26.70
2022-10-24T22:42:01.873Z,26.70
2022-10-24T22:44:30.171Z,26.70
2022-10-24T22:46:58.901Z,26.70
2022-10-24T22:49:44.213Z,26.60
2022-10-24T22:52:12.974Z,26.60
2022-10-24T22:54:41.597Z,26.60
2022-10-24T22:57:10.229Z,26.50
2022-10-24T22:59:38.980Z,26.50
2022-10-24T23:02:25.808Z,26.50
2022-10-24T23:05:23.228Z,26.50
2022-10-24T23:08:16.858Z,26.50
2022-10-24T23:10:45.447Z,26.40
2022-10-24T23:13:13.814Z,26.40
2022-10-24T23:15:42.205Z,26.40
2022-10-24T23:18:11.711Z,26.50
2022-10-24T23:20:52.400Z,26.40
2022-10-24T23:23:29.105Z,26.40
2022-10-24T23:26:04.324Z,26.40
2022-10-24T23:28:44.418Z,26.30
2022-10-24T23:31:12.970Z,26.30
2022-10-24T23:33:41.607Z,26.30
2022-10-24T23:36:19.474Z,26.30
2022-10-24T23:38:48.392Z,26.30
2022-10-24T23:41:16.781Z,26.30
2022-10-24T23:43:45.275Z,26.30
2022-10-24T23:46:25.524Z,26.30
2022-10-24T23:49:26.732Z,26.30
2022-10-24T23:52:17.789Z,26.30
2022-10-24T23:54:46.342Z,26.40
2022-10-24T23:57:19.961Z,26.30
2022-10-24T23:59:48.214Z,26.40
